^^
Saratoga-Weather Station Historical Data
Daily Summary for September 14, 2021 Units:  Metric    English   Both
Daily Weekly Monthly Yearly Custom
  High: Low: Average:
Temperature: 21.9 °C 13.6 °C 17.7 °C
Dew Point: 18.5 °C 12.5 °C 15.4 °C
Humidity: 94% 76% 87%
Wind Speed: 6.4km/h 0km/h 0.5km/h
Wind Gust: 9.7km/h - -
Wind- - ESE
Pressure: 1014.2 hPa 1011.9 hPa -
Precipitation: 0.0 mm    
Historical Graphs
 
 
Tabular Data for September 14, 2021
Time Temperature Dew Point Pressure Wind Wind Speed Wind Gust Humidity Rainfall Rate (Hourly) solar
00:02 16.1 °C 14.3 °C 1014.2 hPa Calm     89% 0.0 mm 0 W/m2
00:07 16.1 °C 14.3 °C 1014.2 hPa Calm     89% 0.0 mm 0 W/m2
00:12 16.1 °C 14.3 °C 1014.2 hPa Calm   3.2 km/h 89% 0.0 mm 0 W/m2
00:17 16 °C 14.2 °C 1014.2 hPa Calm     89% 0.0 mm 0 W/m2
00:22 15.9 °C 14.1 °C 1014.2 hPa SE 1.4 km/h 3.2 km/h 89% 0.0 mm 0 W/m2
00:27 15.9 °C 14.1 °C 1014.2 hPa Calm     89% 0.0 mm 0 W/m2
00:32 15.8 °C 14 °C 1014.2 hPa Calm   3.2 km/h 89% 0.0 mm 0 W/m2
00:37 15.8 °C 14 °C 1014.2 hPa Calm     89% 0.0 mm 0 W/m2
00:42 15.7 °C 14.1 °C 1014.2 hPa Calm     90% 0.0 mm 0 W/m2
00:47 15.7 °C 13.9 °C 1014.2 hPa Calm     89% 0.0 mm 0 W/m2
00:52 15.6 °C 13.8 °C 1014.2 hPa Calm     89% 0.0 mm 0 W/m2
00:57 15.5 °C 13.9 °C 1014.2 hPa Calm     90% 0.0 mm 0 W/m2
01:02 15.4 °C 13.8 °C 1014.2 hPa Calm     90% 0.0 mm 0 W/m2
01:07 15.4 °C 13.8 °C 1014.2 hPa Calm     90% 0.0 mm 0 W/m2
01:12 15.3 °C 13.7 °C 1014.2 hPa Calm     90% 0.0 mm 0 W/m2
01:17 15.2 °C 13.6 °C 1014.2 hPa Calm     90% 0.0 mm 0 W/m2
01:22 15.2 °C 13.7 °C 1014.2 hPa Calm     91% 0.0 mm 0 W/m2
01:27 15.1 °C 13.6 °C 1014.2 hPa Calm     91% 0.0 mm 0 W/m2
01:32 15.1 °C 13.6 °C 1014.2 hPa Calm     91% 0.0 mm 0 W/m2
01:37 15.1 °C 13.6 °C 1014.2 hPa Calm     91% 0.0 mm 0 W/m2
01:42 14.9 °C 13.4 °C 1014.2 hPa Calm     91% 0.0 mm 0 W/m2
01:47 14.9 °C 13.4 °C 1014.2 hPa Calm     91% 0.0 mm 0 W/m2
01:52 14.8 °C 13.3 °C 1014.2 hPa Calm     91% 0.0 mm 0 W/m2
01:57 14.8 °C 13.3 °C 1013.9 hPa Calm     91% 0.0 mm 0 W/m2
02:02 14.7 °C 13.4 °C 1013.9 hPa Calm     92% 0.0 mm 0 W/m2
02:07 14.7 °C 13.4 °C 1013.9 hPa Calm     92% 0.0 mm 0 W/m2
02:12 14.7 °C 13.4 °C 1013.9 hPa Calm     92% 0.0 mm 0 W/m2
02:17 14.6 °C 13.3 °C 1013.9 hPa Calm     92% 0.0 mm 0 W/m2
02:27 14.5 °C 13.2 °C 1013.9 hPa Calm     92% 0.0 mm 0 W/m2
02:32 14.4 °C 13.1 °C 1013.5 hPa Calm     92% 0.0 mm 0 W/m2
02:37 14.4 °C 13.1 °C 1013.5 hPa Calm     92% 0.0 mm 0 W/m2
02:42 14.3 °C 13 °C 1013.5 hPa Calm     92% 0.0 mm 0 W/m2
02:47 14.3 °C 13.2 °C 1013.5 hPa Calm     93% 0.0 mm 0 W/m2
02:52 14.3 °C 13.2 °C 1013.9 hPa Calm     93% 0.0 mm 0 W/m2
02:57 14.2 °C 13.1 °C 1013.9 hPa Calm     93% 0.0 mm 0 W/m2
03:02 14.2 °C 13.1 °C 1013.5 hPa Calm     93% 0.0 mm 0 W/m2
03:07 14.2 °C 13.1 °C 1013.5 hPa Calm     93% 0.0 mm 0 W/m2
03:12 14.2 °C 13.1 °C 1013.5 hPa Calm     93% 0.0 mm 0 W/m2
03:18 14.2 °C 13.1 °C 1013.5 hPa Calm     93% 0.0 mm 0 W/m2
03:23 14.2 °C 13.1 °C 1013.5 hPa Calm     93% 0.0 mm 0 W/m2
03:28 14.2 °C 13.1 °C 1013.5 hPa Calm     93% 0.0 mm 0 W/m2
03:33 14.2 °C 13.1 °C 1013.5 hPa Calm     93% 0.0 mm 0 W/m2
03:38 14.2 °C 13.1 °C 1013.5 hPa Calm     93% 0.0 mm 0 W/m2
03:43 14.2 °C 13.1 °C 1013.5 hPa Calm     93% 0.0 mm 0 W/m2
03:48 14.2 °C 13.1 °C 1013.5 hPa Calm     93% 0.0 mm 0 W/m2
03:53 14.2 °C 13.1 °C 1013.5 hPa Calm     93% 0.0 mm 0 W/m2
03:58 14.3 °C 13.2 °C 1013.5 hPa Calm   1.6 km/h 93% 0.0 mm 0 W/m2
04:03 14.3 °C 13.2 °C 1013.5 hPa Calm     93% 0.0 mm 0 W/m2
04:08 14.3 °C 13.2 °C 1013.5 hPa Calm     93% 0.0 mm 0 W/m2
04:13 14.3 °C 13.2 °C 1013.5 hPa Calm     93% 0.0 mm 0 W/m2
04:18 14.4 °C 13.3 °C 1013.5 hPa Calm     93% 0.0 mm 0 W/m2
04:23 14.4 °C 13.1 °C 1013.2 hPa Calm     92% 0.0 mm 0 W/m2
04:28 14.4 °C 13.1 °C 1013.5 hPa Calm     92% 0.0 mm 0 W/m2
04:33 14.4 °C 13.1 °C 1013.5 hPa Calm     92% 0.0 mm 0 W/m2
04:38 14.3 °C 12.9 °C 1013.5 hPa Calm     91% 0.0 mm 0 W/m2
04:43 14.3 °C 12.9 °C 1013.5 hPa Calm     91% 0.0 mm 0 W/m2
04:48 14.2 °C 12.9 °C 1013.5 hPa Calm     92% 0.0 mm 0 W/m2
04:53 14.2 °C 12.9 °C 1013.5 hPa Calm     92% 0.0 mm 0 W/m2
04:58 14.2 °C 12.9 °C 1013.5 hPa Calm     92% 0.0 mm 0 W/m2
05:03 14.2 °C 12.9 °C 1013.5 hPa Calm     92% 0.0 mm 0 W/m2
05:08 14.1 °C 12.8 °C 1013.2 hPa Calm     92% 0.0 mm 0 W/m2
05:13 14 °C 12.7 °C 1013.5 hPa Calm     92% 0.0 mm 0 W/m2
05:18 13.9 °C 12.6 °C 1013.5 hPa Calm     92% 0.0 mm 0 W/m2
05:23 13.9 °C 12.6 °C 1013.5 hPa Calm     92% 0.0 mm 0 W/m2
05:28 13.9 °C 12.8 °C 1013.5 hPa Calm     93% 0.0 mm 0 W/m2
05:33 13.9 °C 12.8 °C 1013.2 hPa Calm     93% 0.0 mm 0 W/m2
05:38 13.8 °C 12.7 °C 1013.2 hPa Calm     93% 0.0 mm 0 W/m2
05:43 13.8 °C 12.7 °C 1013.2 hPa Calm     93% 0.0 mm 0 W/m2
05:48 13.8 °C 12.7 °C 1013.2 hPa Calm   1.6 km/h 93% 0.0 mm 0 W/m2
05:53 13.7 °C 12.6 °C 1013.2 hPa Calm     93% 0.0 mm 0 W/m2
05:58 13.7 °C 12.6 °C 1012.9 hPa Calm     93% 0.0 mm 0 W/m2
06:03 13.7 °C 12.6 °C 1012.9 hPa Calm     93% 0.0 mm 0 W/m2
06:08 13.7 °C 12.6 °C 1012.9 hPa Calm     93% 0.0 mm 0 W/m2
06:13 13.7 °C 12.8 °C 1012.9 hPa SE 1.4 km/h 1.6 km/h 94% 0.0 mm 0 W/m2
06:18 13.7 °C 12.8 °C 1012.9 hPa SE 1.4 km/h 1.6 km/h 94% 0.0 mm 0 W/m2
06:23 13.7 °C 12.8 °C 1012.9 hPa SE 1.4 km/h 1.6 km/h 94% 0.0 mm 0 W/m2
06:28 13.8 °C 12.9 °C 1012.9 hPa Calm   1.6 km/h 94% 0.0 mm 0 W/m2
06:33 13.8 °C 12.7 °C 1012.9 hPa Calm     93% 0.0 mm 0 W/m2
06:38 13.8 °C 12.7 °C 1012.9 hPa Calm   1.6 km/h 93% 0.0 mm 0 W/m2
06:43 13.7 °C 12.6 °C 1012.9 hPa Calm     93% 0.0 mm 0 W/m2
06:48 13.7 °C 12.6 °C 1012.9 hPa Calm   1.6 km/h 93% 0.0 mm 0 W/m2
06:53 13.7 °C 12.6 °C 1012.9 hPa Calm     93% 0.0 mm 0 W/m2
06:58 13.7 °C 12.6 °C 1012.9 hPa Calm     93% 0.0 mm 0 W/m2
07:03 13.7 °C 12.6 °C 1012.9 hPa SE 1.4 km/h 1.6 km/h 93% 0.0 mm 0 W/m2
07:08 13.7 °C 12.6 °C 1012.9 hPa Calm     93% 0.0 mm 0 W/m2
07:13 13.7 °C 12.6 °C 1012.9 hPa Calm     93% 0.0 mm 0 W/m2
07:18 13.7 °C 12.8 °C 1012.9 hPa Calm     94% 0.0 mm 7 W/m2
07:23 13.7 °C 12.8 °C 1012.9 hPa Calm     94% 0.0 mm 9 W/m2
07:28 13.6 °C 12.7 °C 1012.9 hPa Calm     94% 0.0 mm 11 W/m2
07:33 13.6 °C 12.5 °C 1012.9 hPa Calm   1.6 km/h 93% 0.0 mm 12 W/m2
07:38 13.6 °C 12.5 °C 1012.9 hPa Calm   3.2 km/h 93% 0.0 mm 16 W/m2
07:43 13.6 °C 12.5 °C 1012.9 hPa Calm     93% 0.0 mm 18 W/m2
07:48 13.6 °C 12.7 °C 1012.9 hPa Calm   3.2 km/h 94% 0.0 mm 19 W/m2
07:53 13.6 °C 12.5 °C 1012.9 hPa Calm     93% 0.0 mm 21 W/m2
07:58 13.6 °C 12.7 °C 1013.2 hPa Calm     94% 0.0 mm 19 W/m2
08:03 13.6 °C 12.7 °C 1013.2 hPa Calm     94% 0.0 mm 21 W/m2
08:08 13.6 °C 12.7 °C 1013.2 hPa Calm     94% 0.0 mm 23 W/m2
08:13 13.6 °C 12.7 °C 1013.2 hPa Calm     94% 0.0 mm 26 W/m2
08:18 13.6 °C 12.7 °C 1013.2 hPa Calm     94% 0.0 mm 32 W/m2
08:23 13.7 °C 12.8 °C 1013.2 hPa Calm     94% 0.0 mm 44 W/m2
08:28 13.7 °C 12.8 °C 1013.2 hPa Calm     94% 0.0 mm 77 W/m2
08:33 13.8 °C 12.9 °C 1013.2 hPa Calm     94% 0.0 mm 114 W/m2
08:38 13.9 °C 12.9 °C 1013.2 hPa Calm     94% 0.0 mm 144 W/m2
08:43 14.1 °C 13.1 °C 1013.5 hPa Calm     94% 0.0 mm 169 W/m2
08:48 14.3 °C 13.3 °C 1013.5 hPa Calm     94% 0.0 mm 102 W/m2
08:53 14.6 °C 13.5 °C 1013.5 hPa Calm     93% 0.0 mm 116 W/m2
08:58 14.9 °C 13.6 °C 1013.5 hPa Calm     92% 0.0 mm 248 W/m2
09:03 15.3 °C 13.8 °C 1013.5 hPa Calm     91% 0.0 mm 207 W/m2
09:08 15.6 °C 14 °C 1013.5 hPa NNE 1.4 km/h 1.6 km/h 90% 0.0 mm 186 W/m2
09:13 15.9 °C 13.9 °C 1013.5 hPa NE 1.4 km/h 3.2 km/h 88% 0.0 mm 118 W/m2
09:18 16.1 °C 13.8 °C 1013.5 hPa Calm   4.8 km/h 86% 0.0 mm 139 W/m2
09:23 16.3 °C 13.8 °C 1013.5 hPa Calm   1.6 km/h 85% 0.0 mm 127 W/m2
09:28 16.4 °C 13.9 °C 1013.5 hPa SE 3.2 km/h 6.4 km/h 85% 0.0 mm 239 W/m2
09:33 16.6 °C 14.1 °C 1013.2 hPa ENE 4.7 km/h 4.8 km/h 85% 0.0 mm 339 W/m2
09:38 16.8 °C 14.1 °C 1013.2 hPa Calm   6.4 km/h 84% 0.0 mm 346 W/m2
09:43 17.1 °C 14.4 °C 1013.2 hPa SE 1.4 km/h 4.8 km/h 84% 0.0 mm 188 W/m2
09:48 17.2 °C 14.3 °C 1013.2 hPa ENE 4.7 km/h 6.4 km/h 83% 0.0 mm 127 W/m2
09:53 17.2 °C 14.3 °C 1013.2 hPa Calm   3.2 km/h 83% 0.0 mm 148 W/m2
09:58 17.2 °C 14.3 °C 1013.2 hPa Calm   3.2 km/h 83% 0.0 mm 243 W/m2
10:03 17.3 °C 14.4 °C 1013.2 hPa NE 3.2 km/h 4.8 km/h 83% 0.0 mm 415 W/m2
10:08 17.5 °C 14.6 °C 1013.2 hPa NE 1.4 km/h 3.2 km/h 83% 0.0 mm 316 W/m2
10:13 17.7 °C 14.6 °C 1013.2 hPa Calm   4.8 km/h 82% 0.0 mm 339 W/m2
10:18 17.9 °C 14.6 °C 1013.2 hPa NNE 1.4 km/h 3.2 km/h 81% 0.0 mm 378 W/m2
10:23 18.1 °C 14.6 °C 1013.2 hPa Calm   3.2 km/h 80% 0.0 mm 271 W/m2
10:28 18.1 °C 14.6 °C 1013.5 hPa East 1.4 km/h 4.8 km/h 80% 0.0 mm 229 W/m2
10:33 18.1 °C 14.6 °C 1013.5 hPa NE 3.2 km/h 3.2 km/h 80% 0.0 mm 253 W/m2
10:38 18.2 °C 14.9 °C 1013.5 hPa NE 1.4 km/h 3.2 km/h 81% 0.0 mm 327 W/m2
10:43 18.3 °C 14.8 °C 1013.5 hPa NE 6.4 km/h 6.4 km/h 80% 0.0 mm 396 W/m2
10:48 18.6 °C 15.3 °C 1013.5 hPa Calm   3.2 km/h 81% 0.0 mm 462 W/m2
10:54 18.9 °C 15.2 °C 1013.5 hPa Calm   1.6 km/h 79% 0.0 mm 322 W/m2
10:59 19.2 °C 15.3 °C 1013.5 hPa East 6.4 km/h 6.4 km/h 78% 0.0 mm 220 W/m2
11:04 19.3 °C 15.4 °C 1013.5 hPa Calm   6.4 km/h 78% 0.0 mm 176 W/m2
11:09 19.2 °C 15.3 °C 1013.5 hPa Calm   3.2 km/h 78% 0.0 mm 151 W/m2
11:14 19.1 °C 15.2 °C 1013.5 hPa NE 1.4 km/h 4.8 km/h 78% 0.0 mm 139 W/m2
11:19 19 °C 15.3 °C 1013.5 hPa Calm     79% 0.0 mm 134 W/m2
11:24 19.1 °C 15.4 °C 1013.5 hPa Calm   4.8 km/h 79% 0.0 mm 123 W/m2
11:29 19.1 °C 15.6 °C 1013.9 hPa Calm     80% 0.0 mm 113 W/m2
11:34 19.1 °C 15.6 °C 1013.5 hPa Calm   3.2 km/h 80% 0.0 mm 105 W/m2
11:39 19.1 °C 15.6 °C 1013.5 hPa Calm     80% 0.0 mm 102 W/m2
11:44 19.1 °C 16 °C 1013.5 hPa Calm   1.6 km/h 82% 0.0 mm 100 W/m2
11:49 19.1 °C 15.8 °C 1013.5 hPa Calm     81% 0.0 mm 100 W/m2
11:54 19.1 °C 15.4 °C 1013.5 hPa Calm   1.6 km/h 79% 0.0 mm 107 W/m2
11:59 19.2 °C 15.9 °C 1013.5 hPa Calm   1.6 km/h 81% 0.0 mm 114 W/m2
12:04 19.2 °C 15.9 °C 1013.5 hPa Calm     81% 0.0 mm 116 W/m2
12:09 19.3 °C 16 °C 1013.5 hPa NE 1.4 km/h 1.6 km/h 81% 0.0 mm 107 W/m2
12:14 19.3 °C 16 °C 1013.5 hPa Calm     81% 0.0 mm 104 W/m2
12:19 19.3 °C 16 °C 1013.9 hPa West 3.2 km/h 3.2 km/h 81% 0.0 mm 105 W/m2
12:24 19.2 °C 15.9 °C 1013.5 hPa NNW 3.2 km/h 4.8 km/h 81% 0.0 mm 116 W/m2
12:29 19.2 °C 16.1 °C 1013.2 hPa ENE 3.2 km/h 3.2 km/h 82% 0.0 mm 146 W/m2
12:34 19.2 °C 15.9 °C 1013.2 hPa WNW 1.4 km/h 4.8 km/h 81% 0.0 mm 195 W/m2
12:39 19.3 °C 16.1 °C 1013.2 hPa WNW 1.4 km/h 3.2 km/h 82% 0.0 mm 262 W/m2
12:44 19.5 °C 16.2 °C 1013.2 hPa WNW 1.4 km/h 4.8 km/h 81% 0.0 mm 265 W/m2
12:49 19.6 °C 16.2 °C 1013.5 hPa East 1.4 km/h 4.8 km/h 81% 0.0 mm 279 W/m2
12:54 19.8 °C 16.2 °C 1013.5 hPa Calm   1.6 km/h 80% 0.0 mm 359 W/m2
12:59 20 °C 16.4 °C 1013.5 hPa Calm   4.8 km/h 80% 0.0 mm 422 W/m2
13:04 20.2 °C 16.4 °C 1013.5 hPa Calm   1.6 km/h 79% 0.0 mm 311 W/m2
13:09 20.4 °C 16.6 °C 1013.5 hPa East 4.7 km/h 6.4 km/h 79% 0.0 mm 264 W/m2
13:14 20.6 °C 16.8 °C 1013.5 hPa East 1.4 km/h 3.2 km/h 79% 0.0 mm 230 W/m2
13:19 20.7 °C 16.9 °C 1013.5 hPa Calm   6.4 km/h 79% 0.0 mm 221 W/m2
13:24 20.8 °C 16.6 °C 1013.2 hPa NE 1.4 km/h 4.8 km/h 77% 0.0 mm 213 W/m2
13:29 20.9 °C 16.9 °C 1013.2 hPa ENE 4.7 km/h 6.4 km/h 78% 0.0 mm 169 W/m2
13:34 20.9 °C 16.7 °C 1013.5 hPa Calm   1.6 km/h 77% 0.0 mm 204 W/m2
13:39 20.9 °C 16.9 °C 1013.5 hPa NE 3.2 km/h 3.2 km/h 78% 0.0 mm 250 W/m2
13:44 20.9 °C 17.1 °C 1013.5 hPa SE 1.4 km/h 4.8 km/h 79% 0.0 mm 237 W/m2
13:49 20.9 °C 16.9 °C 1013.5 hPa Calm   4.8 km/h 78% 0.0 mm 229 W/m2
13:54 21 °C 16.8 °C 1013.5 hPa ENE 3.2 km/h 6.4 km/h 77% 0.0 mm 380 W/m2
13:59 21.1 °C 16.9 °C 1013.2 hPa NE 1.4 km/h 4.8 km/h 77% 0.0 mm 304 W/m2
14:04 21.2 °C 16.8 °C 1013.2 hPa East 1.4 km/h 4.8 km/h 76% 0.0 mm 204 W/m2
14:09 21.2 °C 17 °C 1013.2 hPa ESE 4.7 km/h 4.8 km/h 77% 0.0 mm 158 W/m2
14:14 21.2 °C 16.8 °C 1013.2 hPa NNE 1.4 km/h 4.8 km/h 76% 0.0 mm 144 W/m2
14:19 21.1 °C 16.7 °C 1013.2 hPa Calm   4.8 km/h 76% 0.0 mm 148 W/m2
14:24 21.1 °C 16.9 °C 1013.2 hPa Calm   1.6 km/h 77% 0.0 mm 183 W/m2
14:29 21.1 °C 16.7 °C 1013.2 hPa Calm     76% 0.0 mm 221 W/m2
14:34 21.2 °C 17 °C 1013.2 hPa ESE 1.4 km/h 1.6 km/h 77% 0.0 mm 213 W/m2
14:39 21.3 °C 17.1 °C 1013.2 hPa Calm   1.6 km/h 77% 0.0 mm 185 W/m2
14:44 21.3 °C 17.3 °C 1013.2 hPa ESE 1.4 km/h 3.2 km/h 78% 0.0 mm 174 W/m2
14:49 21.2 °C 17 °C 1012.9 hPa Calm   3.2 km/h 77% 0.0 mm 151 W/m2
14:54 21.2 °C 17.4 °C 1012.9 hPa Calm   3.2 km/h 79% 0.0 mm 202 W/m2
14:59 21.2 °C 17.4 °C 1012.9 hPa Calm     79% 0.0 mm 236 W/m2
15:04 21.3 °C 17.3 °C 1012.9 hPa East 1.4 km/h 4.8 km/h 78% 0.0 mm 229 W/m2
15:09 21.3 °C 17.1 °C 1012.9 hPa ENE 1.4 km/h 4.8 km/h 77% 0.0 mm 223 W/m2
15:14 21.4 °C 17.2 °C 1012.9 hPa ESE 1.4 km/h 4.8 km/h 77% 0.0 mm 185 W/m2
15:19 21.4 °C 17.2 °C 1012.9 hPa Calm   4.8 km/h 77% 0.0 mm 181 W/m2
15:24 21.5 °C 17.3 °C 1012.9 hPa Calm   1.6 km/h 77% 0.0 mm 216 W/m2
15:29 21.6 °C 17.4 °C 1013.2 hPa ENE 1.4 km/h 4.8 km/h 77% 0.0 mm 227 W/m2
15:34 21.6 °C 17.4 °C 1012.9 hPa ESE 1.4 km/h 3.2 km/h 77% 0.0 mm 239 W/m2
15:39 21.6 °C 17.4 °C 1012.9 hPa South 1.4 km/h 3.2 km/h 77% 0.0 mm 213 W/m2
15:44 21.6 °C 17.4 °C 1012.9 hPa NE 1.4 km/h 1.6 km/h 77% 0.0 mm 204 W/m2
15:49 21.7 °C 17.5 °C 1012.9 hPa SSE 1.4 km/h 6.4 km/h 77% 0.0 mm 229 W/m2
15:54 21.7 °C 17.3 °C 1013.2 hPa Calm   9.7 km/h 76% 0.0 mm 230 W/m2
15:59 21.7 °C 17.5 °C 1013.2 hPa NNW 1.4 km/h 4.8 km/h 77% 0.0 mm 207 W/m2
16:04 21.8 °C 17.4 °C 1013.2 hPa ENE 3.2 km/h 9.7 km/h 76% 0.0 mm 158 W/m2
16:09 21.7 °C 17.5 °C 1013.5 hPa ENE 1.4 km/h 3.2 km/h 77% 0.0 mm 155 W/m2
16:14 21.7 °C 17.5 °C 1013.5 hPa SW 3.2 km/h 4.8 km/h 77% 0.0 mm 128 W/m2
16:19 21.7 °C 17.5 °C 1013.5 hPa SE 1.4 km/h 3.2 km/h 77% 0.0 mm 104 W/m2
16:24 21.6 °C 17.6 °C 1013.5 hPa ENE 3.2 km/h 6.4 km/h 78% 0.0 mm 121 W/m2
16:29 21.6 °C 17.6 °C 1013.5 hPa East 4.7 km/h 8 km/h 78% 0.0 mm 130 W/m2
16:34 21.6 °C 17.6 °C 1013.2 hPa Calm     78% 0.0 mm 113 W/m2
16:39 21.6 °C 17.6 °C 1013.2 hPa NE 1.4 km/h 3.2 km/h 78% 0.0 mm 83 W/m2
16:44 21.7 °C 17.9 °C 1013.2 hPa Calm     79% 0.0 mm 74 W/m2
16:49 21.7 °C 17.9 °C 1013.2 hPa Calm     79% 0.0 mm 76 W/m2
16:54 21.7 °C 18.1 °C 1013.2 hPa Calm     80% 0.0 mm 97 W/m2
16:59 21.7 °C 18.3 °C 1013.2 hPa Calm   1.6 km/h 81% 0.0 mm 104 W/m2
17:04 21.7 °C 18.1 °C 1013.2 hPa Calm     80% 0.0 mm 98 W/m2
17:09 21.8 °C 18.2 °C 1012.9 hPa ESE 1.4 km/h 1.6 km/h 80% 0.0 mm 100 W/m2
17:14 21.8 °C 18 °C 1012.9 hPa Calm   1.6 km/h 79% 0.0 mm 105 W/m2
17:19 21.8 °C 18 °C 1012.9 hPa Calm   1.6 km/h 79% 0.0 mm 95 W/m2
17:24 21.9 °C 18.1 °C 1012.9 hPa Calm     79% 0.0 mm 88 W/m2
17:29 21.9 °C 17.9 °C 1012.9 hPa Calm     78% 0.0 mm 67 W/m2
17:34 21.9 °C 18.3 °C 1012.9 hPa SE 3.2 km/h 3.2 km/h 80% 0.0 mm 76 W/m2
17:39 21.9 °C 18.1 °C 1012.5 hPa SSE 1.4 km/h 3.2 km/h 79% 0.0 mm 84 W/m2
17:44 21.9 °C 18.3 °C 1012.5 hPa Calm     80% 0.0 mm 83 W/m2
17:49 21.8 °C 18.2 °C 1012.5 hPa Calm   1.6 km/h 80% 0.0 mm 84 W/m2
17:54 21.8 °C 18.2 °C 1012.5 hPa Calm   1.6 km/h 80% 0.0 mm 88 W/m2
17:59 21.8 °C 18.4 °C 1012.5 hPa Calm     81% 0.0 mm 67 W/m2
18:04 21.8 °C 18.2 °C 1012.2 hPa Calm   1.6 km/h 80% 0.0 mm 56 W/m2
18:09 21.8 °C 18.2 °C 1012.2 hPa Calm   1.6 km/h 80% 0.0 mm 54 W/m2
18:14 21.8 °C 18.2 °C 1011.9 hPa Calm     80% 0.0 mm 67 W/m2
18:19 21.7 °C 18.3 °C 1011.9 hPa Calm   1.6 km/h 81% 0.0 mm 69 W/m2
18:24 21.7 °C 18.3 °C 1012.2 hPa Calm     81% 0.0 mm 58 W/m2
18:29 21.6 °C 18.4 °C 1012.2 hPa East 1.4 km/h 1.6 km/h 82% 0.0 mm 54 W/m2
18:34 21.6 °C 18.4 °C 1012.2 hPa Calm     82% 0.0 mm 69 W/m2
18:39 21.5 °C 18.3 °C 1012.2 hPa Calm     82% 0.0 mm 74 W/m2
18:44 21.4 °C 18.2 °C 1012.2 hPa Calm     82% 0.0 mm 60 W/m2
18:49 21.5 °C 18.5 °C 1012.2 hPa Calm     83% 0.0 mm 53 W/m2
18:54 21.4 °C 18.4 °C 1012.2 hPa Calm     83% 0.0 mm 49 W/m2
18:59 21.4 °C 18.4 °C 1012.2 hPa Calm     83% 0.0 mm 40 W/m2
19:04 21.3 °C 18.3 °C 1011.9 hPa Calm     83% 0.0 mm 33 W/m2
19:09 21.2 °C 18.4 °C 1011.9 hPa Calm     84% 0.0 mm 30 W/m2
19:14 21.1 °C 18.3 °C 1011.9 hPa Calm     84% 0.0 mm 26 W/m2
19:19 20.8 °C 18 °C 1011.9 hPa Calm     84% 0.0 mm 23 W/m2
19:24 20.7 °C 18.1 °C 1011.9 hPa Calm     85% 0.0 mm 14 W/m2
19:29 20.6 °C 18 °C 1011.9 hPa Calm     85% 0.0 mm 12 W/m2
19:35 20.4 °C 17.8 °C 1011.9 hPa Calm     85% 0.0 mm 9 W/m2
19:40 20.4 °C 18 °C 1011.9 hPa Calm     86% 0.0 mm 7 W/m2
19:45 20.2 °C 17.8 °C 1011.9 hPa SE 1.4 km/h 1.6 km/h 86% 0.0 mm 0 W/m2
19:50 20.1 °C 17.7 °C 1011.9 hPa Calm     86% 0.0 mm 0 W/m2
19:55 19.9 °C 17.7 °C 1011.9 hPa Calm     87% 0.0 mm 0 W/m2
20:00 19.8 °C 17.6 °C 1011.9 hPa Calm     87% 0.0 mm 0 W/m2
20:05 19.7 °C 17.7 °C 1011.9 hPa Calm     88% 0.0 mm 0 W/m2
20:10 19.6 °C 17.6 °C 1011.9 hPa Calm     88% 0.0 mm 0 W/m2
20:15 19.6 °C 17.6 °C 1012.2 hPa Calm     88% 0.0 mm 0 W/m2
20:20 19.4 °C 17.4 °C 1012.2 hPa Calm     88% 0.0 mm 0 W/m2
20:25 19.3 °C 17.4 °C 1012.2 hPa Calm     89% 0.0 mm 0 W/m2
20:30 19.3 °C 17.4 °C 1012.2 hPa Calm     89% 0.0 mm 0 W/m2
20:35 19.2 °C 17.3 °C 1012.2 hPa Calm     89% 0.0 mm 0 W/m2
20:40 19.1 °C 17.4 °C 1012.2 hPa Calm     90% 0.0 mm 0 W/m2
20:45 18.9 °C 17.2 °C 1012.2 hPa Calm     90% 0.0 mm 0 W/m2
20:50 18.9 °C 17.2 °C 1012.2 hPa Calm     90% 0.0 mm 0 W/m2
20:55 18.8 °C 17.3 °C 1012.2 hPa Calm     91% 0.0 mm 0 W/m2
21:00 18.7 °C 17.2 °C 1012.2 hPa Calm     91% 0.0 mm 0 W/m2
21:05 18.7 °C 17.2 °C 1012.5 hPa Calm     91% 0.0 mm 0 W/m2
21:10 18.7 °C 17.2 °C 1012.2 hPa Calm     91% 0.0 mm 0 W/m2
21:15 18.7 °C 17.4 °C 1012.2 hPa Calm     92% 0.0 mm 0 W/m2
21:20 18.6 °C 17.3 °C 1012.2 hPa Calm     92% 0.0 mm 0 W/m2
21:25 18.6 °C 17.3 °C 1012.2 hPa Calm     92% 0.0 mm 0 W/m2
21:30 18.6 °C 17.3 °C 1012.2 hPa Calm     92% 0.0 mm 0 W/m2
21:35 18.6 °C 17.3 °C 1012.2 hPa Calm     92% 0.0 mm 0 W/m2
21:40 18.5 °C 17.2 °C 1012.2 hPa Calm     92% 0.0 mm 0 W/m2
21:45 18.4 °C 17.2 °C 1012.5 hPa Calm     93% 0.0 mm 0 W/m2
21:50 18.4 °C 17.2 °C 1012.5 hPa Calm     93% 0.0 mm 0 W/m2
21:55 18.4 °C 17.2 °C 1012.5 hPa Calm     93% 0.0 mm 0 W/m2
22:00 18.4 °C 17.2 °C 1012.5 hPa Calm     93% 0.0 mm 0 W/m2
22:05 18.3 °C 17.1 °C 1012.2 hPa Calm     93% 0.0 mm 0 W/m2
22:10 18.3 °C 17.1 °C 1012.2 hPa Calm     93% 0.0 mm 0 W/m2
22:15 18.3 °C 17.1 °C 1012.5 hPa Calm     93% 0.0 mm 0 W/m2
22:20 18.2 °C 17 °C 1012.2 hPa Calm     93% 0.0 mm 0 W/m2
22:25 18.2 °C 17 °C 1012.2 hPa Calm     93% 0.0 mm 0 W/m2
22:30 18.2 °C 17 °C 1012.2 hPa Calm     93% 0.0 mm 0 W/m2
22:35 18.1 °C 16.9 °C 1012.2 hPa Calm     93% 0.0 mm 0 W/m2
22:40 18.1 °C 16.9 °C 1012.2 hPa Calm     93% 0.0 mm 0 W/m2
22:45 18.1 °C 17.1 °C 1012.2 hPa Calm     94% 0.0 mm 0 W/m2
22:50 18.1 °C 16.9 °C 1012.2 hPa Calm     93% 0.0 mm 0 W/m2
22:55 18.1 °C 17.1 °C 1012.2 hPa Calm     94% 0.0 mm 0 W/m2
23:00 18.1 °C 17.1 °C 1012.2 hPa Calm     94% 0.0 mm 0 W/m2
23:05 18.1 °C 17.1 °C 1012.2 hPa Calm     94% 0.0 mm 0 W/m2
23:10 18.1 °C 17.1 °C 1011.9 hPa Calm     94% 0.0 mm 0 W/m2
23:15 18.1 °C 17.1 °C 1011.9 hPa Calm     94% 0.0 mm 0 W/m2
23:20 18.1 °C 17.1 °C 1011.9 hPa Calm     94% 0.0 mm 0 W/m2
23:25 18.1 °C 17.1 °C 1011.9 hPa Calm     94% 0.0 mm 0 W/m2
23:30 18.1 °C 17.1 °C 1011.9 hPa Calm     94% 0.0 mm 0 W/m2
23:35 18 °C 17 °C 1011.9 hPa Calm     94% 0.0 mm 0 W/m2
23:41 18 °C 17 °C 1011.9 hPa Calm     94% 0.0 mm 0 W/m2
23:46 17.9 °C 16.9 °C 1011.9 hPa Calm     94% 0.0 mm 0 W/m2
23:51 17.9 °C 16.9 °C 1011.9 hPa Calm     94% 0.0 mm 0 W/m2
23:56 17.9 °C 16.9 °C 1011.9 hPa Calm     94% 0.0 mm 0 W/m2
Juneau County Weather
Compliments of Weather Underground - 4 mb